Time;durP1;ratioP1;P1;durP2;ratioP2;P2;SDS_P1;SDS_P2;PMS_P1;PMS_P2;Temp;Humidity;BMP_temperature;BMP_pressure;BME280_temperature;BME280_humidity;BME280_pressure;Samples;Min_cycle;Max_cycle;Signal;HPM_P1;HPM_P2
2023/04/14 00:00:29;;;;;;;0.30;0.20;;;;;;;12.61;57.37;94764.69;5135653;27;20447;-62
2023/04/14 00:02:57;;;;;;;0.50;0.50;;;;;;;12.64;56.57;94765.97;5135409;27;20957;-62
2023/04/14 00:05:29;;;;;;;0.37;0.30;;;;;;;12.59;56.03;94758.09;5135864;27;20820;-62
2023/04/14 00:07:57;;;;;;;0.30;0.20;;;;;;;12.34;56.57;94756.69;5135456;27;20438;-62
2023/04/14 00:10:26;;;;;;;0.30;0.20;;;;;;;12.30;58.21;94755.69;5135158;27;20484;-62
2023/04/14 00:12:55;;;;;;;0.40;0.20;;;;;;;12.12;57.51;94759.19;5135549;27;20459;-62
2023/04/14 00:15:23;;;;;;;0.40;0.30;;;;;;;11.71;57.06;94697.25;5135069;27;20473;-62
2023/04/14 00:17:53;;;;;;;0.30;0.30;;;;;;;11.41;58.15;94685.19;5135050;27;20454;-62
2023/04/14 00:20:22;;;;;;;0.30;0.20;;;;;;;11.87;61.93;94767.56;5134324;27;20442;-62
2023/04/14 00:22:50;;;;;;;0.30;0.20;;;;;;;12.15;58.92;94757.81;5135176;27;20431;-63
2023/04/14 00:25:19;;;;;;;0.50;0.50;;;;;;;12.04;58.32;94759.88;5134521;27;20553;-62
2023/04/14 00:27:47;;;;;;;0.30;0.20;;;;;;;12.23;57.42;94757.94;5134489;27;20470;-63
2023/04/14 00:30:15;;;;;;;2.73;0.40;;;;;;;12.41;56.81;94766.94;5134924;27;20481;-62
2023/04/14 00:32:44;;;;;;;0.30;0.20;;;;;;;12.50;56.81;94765.16;5134620;27;20464;-62
2023/04/14 00:35:14;;;;;;;0.40;0.30;;;;;;;12.59;56.61;94756.22;5134910;27;20439;-62
2023/04/14 00:37:43;;;;;;;0.37;0.30;;;;;;;12.57;56.67;94753.06;5134067;27;20470;-62
2023/04/14 00:40:11;;;;;;;0.40;0.30;;;;;;;12.50;56.94;94747.34;5133153;27;20470;-62
2023/04/14 00:42:44;;;;;;;0.33;0.23;;;;;;;12.46;56.96;94754.34;5134573;27;20868;-63
2023/04/14 00:45:13;;;;;;;0.87;0.30;;;;;;;12.54;56.51;94751.00;5133593;27;20430;-63
2023/04/14 00:47:45;;;;;;;0.30;0.30;;;;;;;12.51;56.39;94759.56;5134003;27;20453;-63
2023/04/14 00:50:16;;;;;;;0.30;0.30;;;;;;;12.20;56.37;94699.28;5134005;27;20474;-63
2023/04/14 00:52:47;;;;;;;0.40;0.30;;;;;;;12.39;57.01;94743.31;5134763;27;20777;-63
2023/04/14 00:55:18;;;;;;;0.30;0.20;;;;;;;12.25;56.77;94742.50;5134273;27;20531;-63
2023/04/14 00:57:46;;;;;;;0.30;0.20;;;;;;;12.24;57.60;94762.19;5134114;27;20431;-63
2023/04/14 01:00:15;;;;;;;0.40;0.30;;;;;;;12.27;57.37;94758.16;5133470;27;20435;-63
2023/04/14 01:02:44;;;;;;;0.40;0.30;;;;;;;12.31;57.05;94759.13;5121984;27;20814;-63
2023/04/14 01:05:12;;;;;;;0.30;0.20;;;;;;;11.98;57.40;94700.75;5133851;27;20439;-63
2023/04/14 01:07:43;;;;;;;0.30;0.20;;;;;;;12.40;56.74;94754.72;5134312;27;20435;-63
2023/04/14 01:10:12;;;;;;;0.30;0.20;;;;;;;12.45;56.58;94758.06;5106811;27;20466;-63
2023/04/14 01:12:59;;;;;;;0.30;0.30;;;;;;;12.34;57.37;94759.34;5134428;27;20514;-63
2023/04/14 01:15:34;;;;;;;0.30;0.20;;;;;;;11.90;58.56;94751.88;5133949;27;20463;-63
2023/04/14 01:18:10;;;;;;;0.30;0.20;;;;;;;12.15;57.94;94761.28;5133962;27;20434;-62
2023/04/14 01:20:42;;;;;;;0.30;0.20;;;;;;;12.15;57.70;94761.28;5133949;27;20438;-62
2023/04/14 01:23:21;;;;;;;0.30;0.27;;;;;;;11.82;58.86;94763.16;5133763;27;20533;-62
2023/04/14 01:26:20;;;;;;;0.60;0.60;;;;;;;11.48;60.38;94755.41;5134086;27;20505;-62
2023/04/14 01:29:36;;;;;;;0.40;0.30;;;;;;;11.77;59.19;94757.13;5119981;27;20432;-61
2023/04/14 01:32:09;;;;;;;0.30;0.20;;;;;;;12.03;58.55;94745.00;5120457;27;21113;-62
2023/04/14 01:34:44;;;;;;;0.30;0.20;;;;;;;12.09;58.59;94747.28;5133118;27;20521;-63
2023/04/14 01:37:16;;;;;;;0.30;0.20;;;;;;;12.19;57.79;94733.06;5133681;27;20433;-63
2023/04/14 01:39:48;;;;;;;0.30;0.20;;;;;;;12.29;57.92;94738.19;5133833;27;20431;-62
2023/04/14 01:42:22;;;;;;;0.43;0.30;;;;;;;12.31;57.84;94738.69;5133140;27;20500;-62
2023/04/14 01:44:56;;;;;;;0.50;0.50;;;;;;;11.92;59.35;94754.22;5133497;27;20487;-62
2023/04/14 01:47:27;;;;;;;0.40;0.40;;;;;;;11.83;58.62;94750.66;5133070;27;20465;-62
2023/04/14 01:49:59;;;;;;;0.30;0.20;;;;;;;12.11;59.16;94747.00;5132891;27;20985;-62
2023/04/14 01:52:29;;;;;;;0.40;0.30;;;;;;;12.22;58.09;94743.06;5133701;27;20810;-62
2023/04/14 01:55:00;;;;;;;0.40;0.30;;;;;;;12.19;58.19;94741.03;5133159;27;20446;-62
2023/04/14 01:57:29;;;;;;;0.30;0.20;;;;;;;12.16;57.79;94741.59;5133604;27;20506;-62
2023/04/14 02:00:01;;;;;;;0.40;0.30;;;;;;;12.24;57.81;94748.91;5133304;27;20439;-62
2023/04/14 02:02:32;;;;;;;0.30;0.20;;;;;;;12.23;58.25;94734.03;5132876;27;20829;-61
2023/04/14 02:05:03;;;;;;;0.30;0.20;;;;;;;12.28;57.90;94741.13;5133342;27;20484;-62
2023/04/14 02:07:34;;;;;;;0.60;0.40;;;;;;;12.26;58.28;94746.75;5121228;27;20440;-62
2023/04/14 02:10:04;;;;;;;0.30;0.20;;;;;;;12.21;58.17;94736.19;5131478;27;20996;-62
2023/04/14 02:12:34;;;;;;;0.40;0.30;;;;;;;12.07;58.71;94733.50;5133026;27;20475;-62
2023/04/14 02:15:03;;;;;;;0.30;0.20;;;;;;;11.78;59.13;94719.69;5132764;27;20919;-62
2023/04/14 02:17:33;;;;;;;4.53;0.30;;;;;;;12.07;58.80;94722.09;5132795;27;20461;-61
2023/04/14 02:20:02;;;;;;;0.30;0.20;;;;;;;11.96;58.76;94734.00;5132931;27;20442;-62
2023/04/14 02:22:30;;;;;;;0.30;0.20;;;;;;;12.05;58.47;94726.91;5132547;27;20488;-61
2023/04/14 02:24:59;;;;;;;0.30;0.20;;;;;;;11.76;59.46;94729.00;5131958;27;20495;-62
2023/04/14 02:27:33;;;;;;;0.40;0.37;;;;;;;11.99;58.99;94733.41;5132526;27;20955;-61
2023/04/14 02:30:08;;;;;;;1.70;0.30;;;;;;;12.08;58.61;94734.31;5132916;27;20461;-62
2023/04/14 02:32:41;;;;;;;1.13;0.30;;;;;;;12.14;58.87;94732.34;5131950;27;20488;-61
2023/04/14 02:35:13;;;;;;;0.30;0.20;;;;;;;12.13;58.64;94731.56;5132612;27;20462;-62
2023/04/14 02:37:47;;;;;;;0.40;0.30;;;;;;;12.12;58.78;94726.56;5132634;27;20435;-62
2023/04/14 02:40:20;;;;;;;0.40;0.40;;;;;;;11.62;59.11;94678.50;5132370;27;20439;-62
2023/04/14 02:42:56;;;;;;;0.50;0.50;;;;;;;11.99;59.26;94733.41;5132264;27;20439;-62
2023/04/14 02:45:30;;;;;;;0.40;0.20;;;;;;;11.98;59.29;94718.53;5131924;27;20439;-61
2023/04/14 02:48:03;;;;;;;0.50;0.50;;;;;;;11.29;59.47;94634.47;5132546;27;20957;-62
2023/04/14 02:50:33;;;;;;;0.57;0.50;;;;;;;11.60;60.29;94730.28;5131947;27;20492;-62
2023/04/14 02:53:03;;;;;;;0.40;0.30;;;;;;;11.72;59.99;94733.31;5132207;28;20431;-61
2023/04/14 02:55:32;;;;;;;1.13;1.13;;;;;;;11.57;59.74;94705.13;5131971;28;21011;-61
2023/04/14 02:58:01;;;;;;;0.40;0.30;;;;;;;11.79;59.14;94734.50;5132227;28;20439;-61
2023/04/14 03:00:30;;;;;;;3.10;0.57;;;;;;;11.74;60.17;94739.16;5132121;28;20430;-60
2023/04/14 03:03:01;;;;;;;0.40;0.40;;;;;;;11.52;60.63;94741.56;5131923;27;20453;-60
2023/04/14 03:05:30;;;;;;;0.30;0.20;;;;;;;11.23;61.90;94750.44;5135725;27;20450;-60
2023/04/14 03:08:00;;;;;;;0.40;0.40;;;;;;;11.25;62.29;94747.53;5136132;27;20529;-60
2023/04/14 03:10:29;;;;;;;0.30;0.30;;;;;;;11.47;60.76;94753.84;5135489;27;20816;-61
2023/04/14 03:12:58;;;;;;;0.30;0.30;;;;;;;11.56;60.80;94750.53;5136377;27;20470;-61
2023/04/14 03:15:28;;;;;;;0.40;0.37;;;;;;;11.33;61.79;94744.25;5126278;27;20465;-61
2023/04/14 03:17:57;;;;;;;0.40;0.30;;;;;;;11.38;61.37;94744.94;5133081;27;20462;-60
2023/04/14 03:20:27;;;;;;;0.30;0.20;;;;;;;11.35;61.29;94740.22;5135993;27;20435;-61
2023/04/14 03:23:00;;;;;;;0.37;0.23;;;;;;;11.33;61.03;94746.88;5135959;27;20534;-61
2023/04/14 03:25:30;;;;;;;0.40;0.30;;;;;;;11.73;60.20;94748.16;5135708;27;20494;-61
2023/04/14 03:28:01;;;;;;;0.30;0.20;;;;;;;11.76;59.40;94740.44;5136103;27;20521;-61
2023/04/14 03:30:31;;;;;;;0.30;0.30;;;;;;;11.72;59.87;94738.63;5136176;27;20869;-61
2023/04/14 03:33:04;;;;;;;0.30;0.20;;;;;;;11.79;59.75;94747.03;5110417;27;20481;-61
2023/04/14 03:35:37;;;;;;;0.30;0.30;;;;;;;11.73;59.99;94734.91;5136286;27;20525;-61
2023/04/14 03:38:09;;;;;;;0.47;0.43;;;;;;;11.79;59.77;94731.09;5135795;27;20449;-61
2023/04/14 03:40:43;;;;;;;0.47;0.47;;;;;;;11.74;61.08;94726.63;5135668;27;20442;-61
2023/04/14 03:43:17;;;;;;;1.27;0.60;;;;;;;11.65;61.04;94727.56;5135880;27;20434;-61
2023/04/14 03:45:47;;;;;;;0.90;0.30;;;;;;;11.49;61.50;94721.69;5135238;27;20451;-61
2023/04/14 03:48:18;;;;;;;0.50;0.47;;;;;;;11.29;62.84;94720.13;5135875;27;20517;-61
2023/04/14 03:50:51;;;;;;;0.40;0.30;;;;;;;11.28;62.15;94723.09;5135855;27;20470;-61
2023/04/14 03:53:21;;;;;;;0.30;0.27;;;;;;;11.32;61.78;94719.56;5135140;27;20844;-61
2023/04/14 03:55:52;;;;;;;0.30;0.20;;;;;;;11.23;60.93;94660.28;5135380;27;20517;-61
2023/04/14 03:58:22;;;;;;;0.30;0.20;;;;;;;11.67;60.59;94709.47;5135404;27;20518;-61
2023/04/14 04:00:53;;;;;;;3.60;1.00;;;;;;;11.69;61.40;94705.47;5135745;27;20445;-61
2023/04/14 04:03:22;;;;;;;0.50;0.33;;;;;;;11.22;60.90;94640.13;5135106;27;20996;-61
2023/04/14 04:05:53;;;;;;;0.50;0.37;;;;;;;11.71;60.43;94695.38;5135573;27;20978;-60
2023/04/14 04:08:22;;;;;;;0.30;0.20;;;;;;;11.65;61.39;94704.47;5135195;27;20431;-60
2023/04/14 04:10:54;;;;;;;0.40;0.40;;;;;;;11.70;61.94;94696.44;5135520;27;20439;-61
2023/04/14 04:13:24;;;;;;;0.40;0.30;;;;;;;11.49;63.23;94698.59;5134641;27;20470;-60
2023/04/14 04:15:54;;;;;;;0.50;0.50;;;;;;;10.95;63.78;94653.28;5133384;27;21003;-60
2023/04/14 04:18:24;;;;;;;0.40;0.30;;;;;;;11.33;63.43;94705.22;5135151;27;20504;-60
2023/04/14 04:20:57;;;;;;;0.40;0.30;;;;;;;11.66;61.67;94700.75;5134843;27;20434;-60
2023/04/14 04:23:29;;;;;;;2.90;1.23;;;;;;;11.23;63.85;94700.06;5134903;27;20439;-60
2023/04/14 04:25:58;;;;;;;1.97;1.63;;;;;;;10.74;64.38;94679.28;5134650;27;20458;-60
2023/04/14 04:28:27;;;;;;;3.83;3.53;;;;;;;10.51;67.34;94692.56;5135274;27;20807;-61
2023/04/14 04:30:58;;;;;;;1.07;0.40;;;;;;;10.66;67.70;94702.97;5134799;27;20441;-61
2023/04/14 04:33:30;;;;;;;1.50;0.80;;;;;;;10.83;66.89;94696.13;5135211;27;20478;-60
2023/04/14 04:36:01;;;;;;;0.50;0.40;;;;;;;10.83;66.11;94648.41;5134729;27;20435;-61
2023/04/14 04:38:29;;;;;;;0.80;0.80;;;;;;;10.84;66.17;94696.91;5132859;27;20446;-60
2023/04/14 04:40:57;;;;;;;0.93;0.40;;;;;;;10.43;69.14;94701.13;5134066;27;20522;-61
2023/04/14 04:43:26;;;;;;;0.40;0.40;;;;;;;9.77;71.08;94650.69;5134812;27;20526;-61
2023/04/14 04:46:12;;;;;;;0.40;0.30;;;;;;;10.12;72.52;94698.00;5134729;27;20470;-61
2023/04/14 04:48:40;;;;;;;0.60;0.50;;;;;;;10.42;72.02;94663.28;5134289;27;20452;-60
2023/04/14 04:51:10;;;;;;;0.40;0.30;;;;;;;10.89;69.83;94696.03;5134304;27;20435;-61
2023/04/14 04:53:38;;;;;;;0.30;0.20;;;;;;;10.95;68.68;94687.75;5134096;27;20482;-61
2023/04/14 04:56:07;;;;;;;0.73;0.73;;;;;;;10.57;69.66;94686.13;5133923;27;21001;-61
2023/04/14 04:58:36;;;;;;;0.83;0.83;;;;;;;10.41;71.68;94687.38;5133688;27;20463;-60
2023/04/14 05:01:08;;;;;;;0.60;0.50;;;;;;;10.41;72.81;94698.75;5134302;27;20438;-61
2023/04/14 05:03:37;;;;;;;0.60;0.60;;;;;;;10.35;71.24;94604.53;5134413;27;20470;-60
2023/04/14 05:06:06;;;;;;;0.33;0.27;;;;;;;11.25;68.24;94687.31;5134072;27;20945;-61
2023/04/14 05:08:35;;;;;;;0.70;0.30;;;;;;;11.42;67.26;94690.22;5133931;27;20506;-61
2023/04/14 05:11:04;;;;;;;0.40;0.30;;;;;;;11.39;66.59;94685.50;5133772;27;20459;-61
2023/04/14 05:13:33;;;;;;;0.40;0.33;;;;;;;11.00;67.27;94679.72;5134074;27;20510;-62
2023/04/14 05:16:05;;;;;;;0.30;0.30;;;;;;;11.26;66.59;94675.63;5124233;27;21176;-61
2023/04/14 05:18:34;;;;;;;10.20;0.83;;;;;;;11.59;65.29;94676.41;5133694;27;20435;-61
2023/04/14 05:21:03;;;;;;;0.30;0.20;;;;;;;11.53;66.52;94676.81;5133957;27;20474;-61
2023/04/14 05:23:33;;;;;;;0.60;0.30;;;;;;;11.82;65.14;94677.38;5133972;27;20793;-61
2023/04/14 05:26:04;;;;;;;1.13;0.53;;;;;;;11.72;66.48;94683.66;5132951;27;20441;-61
2023/04/14 05:28:53;;;;;;;0.47;0.47;;;;;;;11.90;65.80;94676.72;5133103;27;20443;-61
2023/04/14 05:31:21;;;;;;;0.57;0.57;;;;;;;12.00;64.23;94681.84;5106056;27;20435;-62
2023/04/14 05:33:49;;;;;;;0.30;0.30;;;;;;;12.22;63.32;94679.31;5133506;27;20474;-61
2023/04/14 05:36:20;;;;;;;0.50;0.40;;;;;;;12.14;63.45;94684.53;5130757;27;20821;-62
2023/04/14 05:38:48;;;;;;;0.47;0.30;;;;;;;12.26;63.32;94690.94;5128245;27;20435;-60
2023/04/14 05:41:19;;;;;;;0.80;0.43;;;;;;;11.93;65.21;94671.63;5133482;27;20453;-61
2023/04/14 05:43:48;;;;;;;0.50;0.40;;;;;;;12.10;64.69;94669.19;5133213;27;20521;-61
2023/04/14 05:46:16;;;;;;;0.40;0.40;;;;;;;12.43;63.31;94663.78;5133212;27;20446;-61
2023/04/14 05:48:44;;;;;;;0.40;0.33;;;;;;;12.52;63.46;94660.13;5132889;27;20442;-60
2023/04/14 05:51:13;;;;;;;0.93;0.60;;;;;;;12.37;63.57;94652.44;5133220;27;20439;-60
2023/04/14 05:53:41;;;;;;;0.50;0.40;;;;;;;12.89;62.35;94660.97;5133215;27;20542;-60
2023/04/14 05:56:10;;;;;;;0.73;0.50;;;;;;;13.46;59.83;94635.47;5133356;27;20439;-60
2023/04/14 05:58:40;;;;;;;0.60;0.50;;;;;;;14.00;57.96;94646.59;5133121;27;20466;-59
2023/04/14 06:01:08;;;;;;;0.80;0.40;;;;;;;13.75;58.29;94641.94;5133361;27;20439;-61
2023/04/14 06:03:37;;;;;;;0.40;0.30;;;;;;;14.29;55.97;94614.13;5133089;27;20458;-61
2023/04/14 06:06:08;;;;;;;0.80;0.80;;;;;;;14.75;55.25;94624.28;5133294;27;20443;-61
2023/04/14 06:08:36;;;;;;;0.40;0.30;;;;;;;14.68;54.93;94625.81;5132815;27;20531;-61
2023/04/14 06:11:05;;;;;;;1.20;1.20;;;;;;;14.30;55.62;94633.53;5132882;27;20439;-60
2023/04/14 06:13:33;;;;;;;0.90;0.90;;;;;;;13.62;56.96;94631.34;5133072;27;20473;-61
2023/04/14 06:16:05;;;;;;;0.50;0.50;;;;;;;13.36;57.98;94623.19;5133201;27;20438;-60
2023/04/14 06:18:33;;;;;;;7.30;1.80;;;;;;;12.91;59.20;94624.22;5133144;27;20446;-60
2023/04/14 06:21:02;;;;;;;1.20;0.80;;;;;;;12.80;60.44;94617.56;5132735;27;20462;-60
2023/04/14 06:23:31;;;;;;;0.40;0.40;;;;;;;12.67;61.11;94617.28;5132370;27;20447;-60
2023/04/14 06:25:59;;;;;;;0.80;0.80;;;;;;;12.67;60.07;94603.97;5132910;27;20438;-59
2023/04/14 06:28:27;;;;;;;0.70;0.57;;;;;;;13.07;59.25;94617.50;5132637;27;20845;-60
2023/04/14 06:30:56;;;;;;;8.93;1.07;;;;;;;13.05;58.19;94617.78;5132367;27;20510;-60
2023/04/14 06:33:26;;;;;;;3.60;1.40;;;;;;;13.19;57.85;94612.41;5132695;27;21039;-59
2023/04/14 06:35:54;;;;;;;0.40;0.30;;;;;;;13.51;58.17;94619.38;5132440;27;20474;-58
2023/04/14 06:38:25;;;;;;;0.73;0.73;;;;;;;14.10;57.16;94631.44;5131655;27;20922;-59
2023/04/14 06:40:54;;;;;;;0.40;0.30;;;;;;;14.14;57.11;94624.41;5132115;27;20487;-59
2023/04/14 06:43:22;;;;;;;1.23;0.50;;;;;;;13.81;57.80;94623.94;5132610;27;20442;-59
2023/04/14 06:45:50;;;;;;;0.30;0.30;;;;;;;14.53;56.24;94611.06;5131288;27;20936;-60
2023/04/14 06:48:19;;;;;;;0.50;0.50;;;;;;;14.05;55.44;94607.59;5132414;27;20446;-60
2023/04/14 06:50:54;;;;;;;0.60;0.60;;;;;;;13.69;55.79;94610.38;5131990;27;20439;-59
2023/04/14 06:53:23;;;;;;;0.50;0.33;;;;;;;13.63;56.40;94580.47;5132130;27;20462;-60
2023/04/14 06:55:57;;;;;;;1.53;0.50;;;;;;;13.77;56.99;94591.00;5132572;27;20487;-60
2023/04/14 06:58:27;;;;;;;0.60;0.60;;;;;;;13.78;56.54;94590.72;5131880;28;20580;-60
2023/04/14 07:00:56;;;;;;;0.40;0.40;;;;;;;14.15;56.39;94575.31;5121959;28;20523;-60
2023/04/14 07:03:25;;;;;;;0.60;0.60;;;;;;;13.98;56.47;94602.72;5129655;28;20439;-60
2023/04/14 07:05:55;;;;;;;1.20;1.10;;;;;;;13.80;55.81;94607.16;5132188;28;20434;-60
2023/04/14 07:08:23;;;;;;;0.40;0.40;;;;;;;14.64;54.22;94604.34;5132407;27;20526;-60
2023/04/14 07:10:59;;;;;;;0.50;0.40;;;;;;;15.25;53.25;94614.72;5131913;28;20479;-60
2023/04/14 07:13:28;;;;;;;0.30;0.20;;;;;;;15.91;52.20;94609.16;5132768;28;20542;-61
2023/04/14 07:15:56;;;;;;;0.40;0.33;;;;;;;16.18;52.40;94624.78;5131983;28;21017;-61
2023/04/14 07:18:24;;;;;;;0.40;0.20;;;;;;;16.29;52.11;94594.69;5132120;28;20488;-59
2023/04/14 07:20:54;;;;;;;0.70;0.30;;;;;;;17.14;50.27;94619.38;5131866;28;20435;-60
2023/04/14 07:23:23;;;;;;;2.03;0.37;;;;;;;17.40;48.46;94616.50;5132646;28;20463;-60
2023/04/14 07:25:53;;;;;;;0.40;0.30;;;;;;;16.42;50.14;94616.97;5132265;28;20441;-61
2023/04/14 07:28:22;;;;;;;0.63;0.50;;;;;;;16.04;51.21;94610.84;5132505;27;20534;-61
2023/04/14 07:30:51;;;;;;;0.40;0.40;;;;;;;15.98;52.12;94593.41;5131613;28;20435;-61
2023/04/14 07:33:21;;;;;;;0.60;0.30;;;;;;;16.21;51.54;94608.09;5131583;28;20446;-62
2023/04/14 07:35:50;;;;;;;0.53;0.30;;;;;;;16.79;49.89;94618.06;5132135;27;20433;-62
2023/04/14 07:38:32;;;;;;;0.77;0.53;;;;;;;17.22;50.01;94625.78;5131726;27;20525;-62
2023/04/14 07:41:03;;;;;;;0.40;0.30;;;;;;;17.64;48.69;94616.59;5131700;27;20788;-63
2023/04/14 07:43:34;;;;;;;0.40;0.33;;;;;;;18.30;47.44;94611.94;5131747;28;20477;-63
2023/04/14 07:46:03;;;;;;;1.13;1.10;;;;;;;18.21;47.36;94604.03;5131825;28;20434;-62
2023/04/14 07:48:33;;;;;;;0.50;0.50;;;;;;;19.03;46.28;94597.38;5131482;28;20438;-60
2023/04/14 07:51:03;;;;;;;0.60;0.60;;;;;;;19.35;45.20;94594.84;5134848;27;20958;-58
2023/04/14 07:53:33;;;;;;;0.70;0.70;;;;;;;19.78;44.78;94578.78;5134852;27;20920;-59
2023/04/14 07:56:01;;;;;;;0.40;0.27;;;;;;;19.51;46.54;94558.84;5135061;27;20446;-59
2023/04/14 07:58:30;;;;;;;0.50;0.40;;;;;;;19.42;45.15;94581.63;5135381;27;20435;-60
2023/04/14 08:00:58;;;;;;;0.50;0.37;;;;;;;19.81;45.33;94567.31;5135486;27;20443;-60
2023/04/14 08:03:26;;;;;;;0.40;0.30;;;;;;;19.75;45.38;94568.69;5135261;27;20435;-61
2023/04/14 08:05:56;;;;;;;1.03;0.70;;;;;;;20.29;44.94;94563.53;5135191;27;20526;-62
2023/04/14 08:08:24;;;;;;;1.07;0.73;;;;;;;18.95;44.92;94576.81;5135283;27;20431;-63
2023/04/14 08:10:54;;;;;;;0.60;0.60;;;;;;;18.10;46.41;94570.69;5135368;27;20439;-62
2023/04/14 08:13:22;;;;;;;0.50;0.50;;;;;;;17.92;46.19;94545.19;5134874;27;20446;-63
2023/04/14 08:15:51;;;;;;;0.50;0.40;;;;;;;17.37;47.03;94567.03;5134378;27;20431;-63
2023/04/14 08:18:20;;;;;;;0.87;0.60;;;;;;;16.93;48.07;94568.50;5134053;27;20439;-63
2023/04/14 08:20:48;;;;;;;0.60;0.60;;;;;;;16.98;47.64;94570.19;5134169;27;20470;-66
2023/04/14 08:23:17;;;;;;;3.30;0.97;;;;;;;16.82;48.21;94563.88;5134201;27;20463;-71
2023/04/14 08:25:45;;;;;;;0.80;0.80;;;;;;;16.97;48.50;94560.63;5134268;27;20462;-71
2023/04/14 08:28:15;;;;;;;0.50;0.40;;;;;;;17.11;48.61;94564.59;5134953;27;20875;-69
2023/04/14 08:30:43;;;;;;;0.97;0.77;;;;;;;16.63;49.28;94568.88;5134500;27;20579;-67
2023/04/14 08:33:11;;;;;;;0.50;0.50;;;;;;;16.78;49.84;94565.63;5152369;27;20455;-70
2023/04/14 08:35:40;;;;;;;0.50;0.43;;;;;;;17.52;48.89;94587.06;5145470;27;20496;-71
2023/04/14 08:38:11;;;;;;;1.33;0.63;;;;;;;17.44;49.91;94580.69;5135114;27;20445;-66
2023/04/14 08:40:40;;;;;;;0.50;0.37;;;;;;;17.49;49.89;94579.69;5135165;27;20470;-66
2023/04/14 08:43:09;;;;;;;0.40;0.30;;;;;;;17.68;49.81;94578.09;5135109;27;20465;-67
2023/04/14 08:45:44;;;;;;;0.40;0.30;;;;;;;17.58;50.20;94570.47;5134891;27;20435;-65
2023/04/14 08:48:16;;;;;;;0.57;0.37;;;;;;;17.62;50.02;94576.75;5135046;27;20507;-66
2023/04/14 08:50:55;;;;;;;0.60;0.30;;;;;;;17.96;49.24;94570.22;5134746;27;20518;-65
2023/04/14 08:53:26;;;;;;;4.63;0.83;;;;;;;17.91;49.11;94572.34;5134256;27;20442;-65
2023/04/14 08:55:56;;;;;;;0.53;0.37;;;;;;;18.25;48.50;94571.94;5134593;27;20478;-65
2023/04/14 08:58:25;;;;;;;0.70;0.57;;;;;;;18.14;48.55;94538.63;5134667;27;20488;-65
2023/04/14 09:00:56;;;;;;;0.40;0.40;;;;;;;18.66;47.41;94557.50;5134120;27;20445;-65
2023/04/14 09:03:25;;;;;;;0.40;0.30;;;;;;;18.56;47.67;94548.03;5134007;27;20812;-65
2023/04/14 09:05:54;;;;;;;0.30;0.20;;;;;;;18.92;46.35;94542.56;5134084;27;20447;-65
2023/04/14 09:08:22;;;;;;;0.40;0.30;;;;;;;18.44;47.09;94537.28;5134037;27;20517;-65
2023/04/14 09:10:51;;;;;;;0.60;0.60;;;;;;;18.48;46.87;94543.56;5134172;27;21068;-66
2023/04/14 09:13:21;;;;;;;0.50;0.50;;;;;;;18.38;46.56;94533.25;5134127;27;20435;-67
2023/04/14 09:15:50;;;;;;;0.30;0.20;;;;;;;18.47;47.38;94528.56;5134442;27;20584;-66
2023/04/14 09:18:21;;;;;;;3.60;0.40;;;;;;;18.59;46.51;94525.91;5133482;27;20477;-65
2023/04/14 09:20:49;;;;;;;0.40;0.30;;;;;;;18.86;45.70;94535.09;5134321;27;20441;-65
2023/04/14 09:23:40;;;;;;;0.40;0.40;;;;;;;18.66;46.48;94552.94;5133854;27;20446;-65
2023/04/14 09:26:10;;;;;;;0.47;0.30;;;;;;;18.64;46.63;94547.13;5133716;27;20463;-64
2023/04/14 09:28:38;;;;;;;0.30;0.30;;;;;;;18.76;46.32;94528.31;5134043;27;20926;-65
2023/04/14 09:31:07;;;;;;;0.63;0.50;;;;;;;18.99;46.19;94537.44;5132037;27;21001;-65
2023/04/14 09:33:43;;;;;;;0.40;0.30;;;;;;;19.23;47.17;94536.53;5131422;27;20447;-65
2023/04/14 09:36:18;;;;;;;0.30;0.20;;;;;;;19.19;45.93;94519.56;5106737;27;20471;-65
2023/04/14 09:38:48;;;;;;;0.30;0.20;;;;;;;19.54;45.26;94535.88;5132049;27;20469;-65
2023/04/14 09:41:18;;;;;;;0.70;0.70;;;;;;;19.14;47.11;94532.44;5131424;27;20443;-65
2023/04/14 09:43:46;;;;;;;0.70;0.60;;;;;;;18.81;47.21;94525.38;5131136;27;20445;-65
2023/04/14 09:46:15;;;;;;;1.70;0.80;;;;;;;18.51;48.48;94497.28;5131607;27;20445;-65
2023/04/14 09:48:52;;;;;;;1.07;1.07;;;;;;;18.45;49.15;94516.56;5131095;27;20442;-65
2023/04/14 09:51:27;;;;;;;0.90;0.40;;;;;;;18.22;49.84;94527.00;5131177;27;20430;-65
2023/04/14 09:54:02;;;;;;;0.90;0.50;;;;;;;18.39;49.25;94540.19;5130461;27;20438;-65
2023/04/14 09:56:31;;;;;;;0.50;0.40;;;;;;;18.52;49.12;94509.56;5131335;27;20470;-64
2023/04/14 09:59:02;;;;;;;0.60;0.53;;;;;;;18.23;49.41;94541.97;5133605;27;20484;-65
2023/04/14 10:01:33;;;;;;;12.13;0.87;;;;;;;18.02;49.54;94546.66;5133033;27;20471;-64
2023/04/14 10:04:03;;;;;;;5.20;0.40;;;;;;;18.30;49.53;94548.34;5133209;27;20435;-64
2023/04/14 10:06:32;;;;;;;0.50;0.47;;;;;;;18.63;49.50;94550.13;5132649;27;20543;-64
2023/04/14 10:09:02;;;;;;;0.60;0.60;;;;;;;18.61;49.99;94542.44;5133532;27;20500;-64
2023/04/14 10:11:32;;;;;;;4.77;0.67;;;;;;;18.35;51.27;94537.41;5132652;27;20435;-63
2023/04/14 10:14:02;;;;;;;23.67;0.77;;;;;;;18.67;51.06;94519.59;5133201;27;20526;-63
2023/04/14 10:16:32;;;;;;;0.53;0.53;;;;;;;18.42;51.78;94531.44;5132234;27;20470;-63
2023/04/14 10:19:01;;;;;;;0.40;0.30;;;;;;;18.09;53.08;94507.44;5133517;27;20454;-64
2023/04/14 10:21:32;;;;;;;0.40;0.30;;;;;;;18.28;54.03;94504.19;5132519;27;20519;-64
2023/04/14 10:24:01;;;;;;;0.40;0.30;;;;;;;18.19;55.61;94514.28;5132802;27;20916;-64
2023/04/14 10:26:30;;;;;;;2.30;0.73;;;;;;;18.27;53.68;94516.03;5132767;27;20526;-64
2023/04/14 10:29:00;;;;;;;0.40;0.40;;;;;;;18.45;54.13;94512.00;5132651;27;20443;-64
2023/04/14 10:31:32;;;;;;;0.80;0.57;;;;;;;17.82;54.21;94445.66;5132730;27;20947;-66
2023/04/14 10:34:07;;;;;;;2.43;1.10;;;;;;;18.52;54.22;94477.34;5132455;27;20438;-65
2023/04/14 10:36:37;;;;;;;8.30;0.53;;;;;;;19.32;53.89;94480.75;5132398;27;21046;-66
2023/04/14 10:39:07;;;;;;;0.50;0.40;;;;;;;20.06;51.30;94453.03;5132462;27;20439;-61
2023/04/14 10:41:46;;;;;;;0.73;0.70;;;;;;;20.93;48.91;94447.25;5132692;27;20446;-63
2023/04/14 10:44:24;;;;;;;0.60;0.50;;;;;;;22.40;47.53;94461.78;5132800;27;20430;-67
2023/04/14 10:46:55;;;;;;;0.40;0.30;;;;;;;23.09;46.41;94455.00;5132305;27;20441;-74
2023/04/14 10:49:29;;;;;;;1.73;1.63;;;;;;;23.30;44.24;94432.81;5126018;27;20444;-76
2023/04/14 10:52:00;;;;;;;0.60;0.40;;;;;;;23.73;43.44;94440.19;5135090;27;20977;-74
2023/04/14 10:54:48;;;;;;;0.40;0.30;;;;;;;23.60;43.01;94438.94;5136517;27;20494;-74
2023/04/14 10:57:18;;;;;;;2.10;0.67;;;;;;;24.20;43.04;94438.69;5133875;28;20447;-76
2023/04/14 10:59:47;;;;;;;0.90;0.90;;;;;;;24.61;41.54;94442.81;5132977;28;20439;-70
2023/04/14 11:02:29;;;;;;;0.57;0.57;;;;;;;24.36;41.04;94409.41;5131936;28;20553;-68
2023/04/14 11:05:07;;;;;;;1.67;1.67;;;;;;;23.91;41.44;94456.59;5132230;27;20525;-68
2023/04/14 11:07:44;;;;;;;0.70;0.60;;;;;;;25.05;40.11;94462.41;5132016;28;20957;-65
2023/04/14 11:10:27;;;;;;;0.93;0.93;;;;;;;25.60;39.44;94459.53;5132606;27;20426;-66
2023/04/14 11:12:57;;;;;;;2.07;1.90;;;;;;;26.80;38.70;94462.25;5131097;28;20571;-64
2023/04/14 11:15:43;;;;;;;0.63;0.63;;;;;;;26.01;38.00;94487.13;5132879;28;20466;-65
2023/04/14 11:18:15;;;;;;;1.53;0.50;;;;;;;24.91;40.28;94477.84;5131719;27;20960;-67
2023/04/14 11:20:44;;;;;;;1.33;1.03;;;;;;;24.91;40.15;94486.75;5132023;28;20499;-65
2023/04/14 11:23:15;;;;;;;0.77;0.73;;;;;;;25.08;40.56;94485.28;5105654;28;20995;-65
2023/04/14 11:25:44;;;;;;;8.30;0.90;;;;;;;23.68;41.91;94473.00;5134251;27;21073;-66
2023/04/14 11:28:13;;;;;;;0.40;0.30;;;;;;;23.33;42.77;94469.91;5136077;27;20526;-65
2023/04/14 11:30:42;;;;;;;0.50;0.50;;;;;;;22.96;44.16;94461.78;5136306;27;20809;-66
2023/04/14 11:33:11;;;;;;;5.60;0.40;;;;;;;23.70;43.19;94446.38;5136123;27;20500;-65
2023/04/14 11:35:42;;;;;;;0.60;0.43;;;;;;;23.61;43.65;94440.50;5135851;27;20487;-64
2023/04/14 11:38:11;;;;;;;0.80;0.80;;;;;;;23.98;43.65;94446.59;5135834;27;20439;-64
2023/04/14 11:40:41;;;;;;;2.90;0.80;;;;;;;24.62;42.93;94428.09;5135679;27;20566;-65
2023/04/14 11:43:09;;;;;;;0.67;0.50;;;;;;;23.81;44.24;94436.41;5135840;27;20435;-65
2023/04/14 11:45:42;;;;;;;1.63;1.53;;;;;;;23.78;44.02;94431.00;5135981;27;20529;-65
2023/04/14 11:48:12;;;;;;;0.90;0.90;;;;;;;23.96;43.56;94421.06;5135442;27;20499;-65
2023/04/14 11:50:41;;;;;;;0.80;0.60;;;;;;;24.06;43.07;94422.31;5134785;27;20435;-65